sensor_id;sensor_type;location;lat;lon;timestamp;temperature;humidity
15609;DHT22;63162;45.642;13.758;2022-09-02T00:02:23;21.80;50.00
15609;DHT22;63162;45.642;13.758;2022-09-02T00:04:49;21.80;50.10
15609;DHT22;63162;45.642;13.758;2022-09-02T00:07:15;21.80;50.90
15609;DHT22;63162;45.642;13.758;2022-09-02T00:09:40;21.80;51.10
15609;DHT22;63162;45.642;13.758;2022-09-02T00:12:07;21.70;50.60
15609;DHT22;63162;45.642;13.758;2022-09-02T00:14:36;21.70;50.90
15609;DHT22;63162;45.642;13.758;2022-09-02T00:17:03;21.70;50.30
15609;DHT22;63162;45.642;13.758;2022-09-02T00:19:30;21.70;50.60
15609;DHT22;63162;45.642;13.758;2022-09-02T00:21:56;21.70;50.40
15609;DHT22;63162;45.642;13.758;2022-09-02T00:24:23;21.70;50.40
15609;DHT22;63162;45.642;13.758;2022-09-02T00:26:50;21.70;50.20
15609;DHT22;63162;45.642;13.758;2022-09-02T00:29:16;21.70;50.40
15609;DHT22;63162;45.642;13.758;2022-09-02T00:31:42;21.70;50.30
15609;DHT22;63162;45.642;13.758;2022-09-02T00:34:09;21.70;50.50
15609;DHT22;63162;45.642;13.758;2022-09-02T00:36:35;21.60;50.60
15609;DHT22;63162;45.642;13.758;2022-09-02T00:39:01;21.60;50.70
15609;DHT22;63162;45.642;13.758;2022-09-02T00:41:28;21.60;50.70
15609;DHT22;63162;45.642;13.758;2022-09-02T00:44:03;21.60;50.70
15609;DHT22;63162;45.642;13.758;2022-09-02T00:46:31;21.60;50.70
15609;DHT22;63162;45.642;13.758;2022-09-02T00:49:20;21.50;50.70
15609;DHT22;63162;45.642;13.758;2022-09-02T00:51:55;21.50;50.90
15609;DHT22;63162;45.642;13.758;2022-09-02T00:54:23;21.50;50.60
15609;DHT22;63162;45.642;13.758;2022-09-02T00:56:50;21.50;50.50
15609;DHT22;63162;45.642;13.758;2022-09-02T01:02:05;21.50;50.70
15609;DHT22;63162;45.642;13.758;2022-09-02T01:04:32;21.40;50.60
15609;DHT22;63162;45.642;13.758;2022-09-02T01:06:59;21.40;50.80
15609;DHT22;63162;45.642;13.758;2022-09-02T01:09:25;21.40;50.80
15609;DHT22;63162;45.642;13.758;2022-09-02T01:11:51;21.40;50.50
15609;DHT22;63162;45.642;13.758;2022-09-02T01:14:17;21.40;50.60
15609;DHT22;63162;45.642;13.758;2022-09-02T01:16:47;21.40;50.90
15609;DHT22;63162;45.642;13.758;2022-09-02T01:21:50;21.40;50.60
15609;DHT22;63162;45.642;13.758;2022-09-02T01:24:18;21.40;50.00
15609;DHT22;63162;45.642;13.758;2022-09-02T01:26:44;21.40;50.10
15609;DHT22;63162;45.642;13.758;2022-09-02T01:29:10;21.40;49.70
15609;DHT22;63162;45.642;13.758;2022-09-02T01:31:37;21.40;49.70
15609;DHT22;63162;45.642;13.758;2022-09-02T01:34:02;21.40;50.00
15609;DHT22;63162;45.642;13.758;2022-09-02T01:36:31;21.30;50.00
15609;DHT22;63162;45.642;13.758;2022-09-02T01:38:57;21.30;49.50
15609;DHT22;63162;45.642;13.758;2022-09-02T01:41:23;21.30;49.60
15609;DHT22;63162;45.642;13.758;2022-09-02T01:43:48;21.30;49.70
15609;DHT22;63162;45.642;13.758;2022-09-02T01:46:14;21.30;49.30
15609;DHT22;63162;45.642;13.758;2022-09-02T01:48:40;21.20;49.30
15609;DHT22;63162;45.642;13.758;2022-09-02T01:51:06;21.20;49.00
15609;DHT22;63162;45.642;13.758;2022-09-02T01:53:32;21.20;49.10
15609;DHT22;63162;45.642;13.758;2022-09-02T01:55:58;21.20;49.30
15609;DHT22;63162;45.642;13.758;2022-09-02T01:58:24;21.10;49.00
15609;DHT22;63162;45.642;13.758;2022-09-02T02:00:49;21.10;49.10
15609;DHT22;63162;45.642;13.758;2022-09-02T02:03:15;21.10;49.10
15609;DHT22;63162;45.642;13.758;2022-09-02T02:05:41;21.10;48.80
15609;DHT22;63162;45.642;13.758;2022-09-02T02:08:07;21.00;49.00
15609;DHT22;63162;45.642;13.758;2022-09-02T02:10:33;21.00;49.20
15609;DHT22;63162;45.642;13.758;2022-09-02T02:13:00;21.00;48.80
15609;DHT22;63162;45.642;13.758;2022-09-02T02:15:26;21.00;48.90
15609;DHT22;63162;45.642;13.758;2022-09-02T02:17:52;21.00;48.70
15609;DHT22;63162;45.642;13.758;2022-09-02T02:20:19;21.00;48.50
15609;DHT22;63162;45.642;13.758;2022-09-02T02:22:45;21.00;48.70
15609;DHT22;63162;45.642;13.758;2022-09-02T02:25:12;21.00;48.90
15609;DHT22;63162;45.642;13.758;2022-09-02T02:27:40;21.00;49.00
15609;DHT22;63162;45.642;13.758;2022-09-02T02:30:08;21.00;48.70
15609;DHT22;63162;45.642;13.758;2022-09-02T02:32:34;21.00;48.80
15609;DHT22;63162;45.642;13.758;2022-09-02T02:35:03;21.00;49.00
15609;DHT22;63162;45.642;13.758;2022-09-02T02:37:28;21.00;48.50
15609;DHT22;63162;45.642;13.758;2022-09-02T02:39:54;21.00;48.50
15609;DHT22;63162;45.642;13.758;2022-09-02T02:42:22;21.00;48.50
15609;DHT22;63162;45.642;13.758;2022-09-02T02:44:47;21.00;48.50
15609;DHT22;63162;45.642;13.758;2022-09-02T02:47:13;21.00;48.60
15609;DHT22;63162;45.642;13.758;2022-09-02T02:49:40;21.00;48.90
15609;DHT22;63162;45.642;13.758;2022-09-02T02:52:06;20.90;48.20
15609;DHT22;63162;45.642;13.758;2022-09-02T02:54:32;20.90;48.50
15609;DHT22;63162;45.642;13.758;2022-09-02T02:56:57;20.90;48.40
15609;DHT22;63162;45.642;13.758;2022-09-02T02:59:23;20.90;48.50
15609;DHT22;63162;45.642;13.758;2022-09-02T03:01:50;20.90;48.30
15609;DHT22;63162;45.642;13.758;2022-09-02T03:04:16;20.90;48.50
15609;DHT22;63162;45.642;13.758;2022-09-02T03:06:41;20.90;49.20
15609;DHT22;63162;45.642;13.758;2022-09-02T03:09:07;21.00;49.30
15609;DHT22;63162;45.642;13.758;2022-09-02T03:11:33;21.00;48.70
15609;DHT22;63162;45.642;13.758;2022-09-02T03:13:58;21.00;49.10
15609;DHT22;63162;45.642;13.758;2022-09-02T03:16:25;21.00;48.40
15609;DHT22;63162;45.642;13.758;2022-09-02T03:18:50;20.90;48.50
15609;DHT22;63162;45.642;13.758;2022-09-02T03:21:16;20.90;49.30
15609;DHT22;63162;45.642;13.758;2022-09-02T03:23:43;20.90;49.70
15609;DHT22;63162;45.642;13.758;2022-09-02T03:26:11;20.90;50.10
15609;DHT22;63162;45.642;13.758;2022-09-02T03:28:37;20.90;49.10
15609;DHT22;63162;45.642;13.758;2022-09-02T03:31:04;20.90;47.70
15609;DHT22;63162;45.642;13.758;2022-09-02T03:33:30;20.90;47.80
15609;DHT22;63162;45.642;13.758;2022-09-02T03:35:55;20.90;47.40
15609;DHT22;63162;45.642;13.758;2022-09-02T03:38:21;20.90;47.00
15609;DHT22;63162;45.642;13.758;2022-09-02T03:40:47;20.90;46.90
15609;DHT22;63162;45.642;13.758;2022-09-02T03:43:12;20.90;47.40
15609;DHT22;63162;45.642;13.758;2022-09-02T03:45:39;20.90;47.60
15609;DHT22;63162;45.642;13.758;2022-09-02T03:48:06;21.00;46.80
15609;DHT22;63162;45.642;13.758;2022-09-02T03:50:38;20.90;46.60
15609;DHT22;63162;45.642;13.758;2022-09-02T03:53:05;20.90;45.90
15609;DHT22;63162;45.642;13.758;2022-09-02T03:55:32;20.90;46.10
15609;DHT22;63162;45.642;13.758;2022-09-02T03:57:58;21.00;45.90
15609;DHT22;63162;45.642;13.758;2022-09-02T04:00:25;20.90;46.30
15609;DHT22;63162;45.642;13.758;2022-09-02T04:02:54;20.90;45.30
15609;DHT22;63162;45.642;13.758;2022-09-02T04:05:21;20.90;45.70
15609;DHT22;63162;45.642;13.758;2022-09-02T04:07:47;20.90;45.80
15609;DHT22;63162;45.642;13.758;2022-09-02T04:10:14;20.80;45.80
15609;DHT22;63162;45.642;13.758;2022-09-02T04:12:40;20.80;46.30
15609;DHT22;63162;45.642;13.758;2022-09-02T04:15:08;20.70;46.00
15609;DHT22;63162;45.642;13.758;2022-09-02T04:17:36;20.70;46.10
15609;DHT22;63162;45.642;13.758;2022-09-02T04:20:04;20.70;46.40
15609;DHT22;63162;45.642;13.758;2022-09-02T04:22:30;20.60;46.20
15609;DHT22;63162;45.642;13.758;2022-09-02T04:24:56;20.60;46.20
15609;DHT22;63162;45.642;13.758;2022-09-02T04:27:22;20.60;46.40
15609;DHT22;63162;45.642;13.758;2022-09-02T04:29:47;20.60;46.60
15609;DHT22;63162;45.642;13.758;2022-09-02T04:32:13;20.60;46.70
15609;DHT22;63162;45.642;13.758;2022-09-02T04:34:38;20.60;46.80
15609;DHT22;63162;45.642;13.758;2022-09-02T04:37:04;20.60;47.70
15609;DHT22;63162;45.642;13.758;2022-09-02T04:39:30;20.60;46.90
15609;DHT22;63162;45.642;13.758;2022-09-02T04:41:56;20.60;46.60
15609;DHT22;63162;45.642;13.758;2022-09-02T04:44:21;20.60;46.70
15609;DHT22;63162;45.642;13.758;2022-09-02T04:46:47;20.60;47.00
15609;DHT22;63162;45.642;13.758;2022-09-02T04:49:13;20.60;47.20
15609;DHT22;63162;45.642;13.758;2022-09-02T04:51:39;20.60;47.10
15609;DHT22;63162;45.642;13.758;2022-09-02T04:54:05;20.60;47.30
15609;DHT22;63162;45.642;13.758;2022-09-02T04:56:32;20.60;47.30
15609;DHT22;63162;45.642;13.758;2022-09-02T04:58:58;20.60;47.40
15609;DHT22;63162;45.642;13.758;2022-09-02T05:01:26;20.60;47.20
15609;DHT22;63162;45.642;13.758;2022-09-02T05:03:53;20.60;47.20
15609;DHT22;63162;45.642;13.758;2022-09-02T05:06:22;20.60;47.30
15609;DHT22;63162;45.642;13.758;2022-09-02T05:08:50;20.50;47.40
15609;DHT22;63162;45.642;13.758;2022-09-02T05:11:20;20.50;47.40
15609;DHT22;63162;45.642;13.758;2022-09-02T05:13:47;20.60;47.40
15609;DHT22;63162;45.642;13.758;2022-09-02T05:16:15;20.50;47.60
15609;DHT22;63162;45.642;13.758;2022-09-02T05:18:41;20.60;47.50
15609;DHT22;63162;45.642;13.758;2022-09-02T05:21:06;20.50;47.60
15609;DHT22;63162;45.642;13.758;2022-09-02T05:23:33;20.60;47.60
15609;DHT22;63162;45.642;13.758;2022-09-02T05:26:05;20.60;47.40
15609;DHT22;63162;45.642;13.758;2022-09-02T05:28:32;20.60;47.30
15609;DHT22;63162;45.642;13.758;2022-09-02T05:31:03;20.60;47.20
15609;DHT22;63162;45.642;13.758;2022-09-02T05:33:31;20.60;47.10
15609;DHT22;63162;45.642;13.758;2022-09-02T05:35:57;20.60;46.90
15609;DHT22;63162;45.642;13.758;2022-09-02T05:38:22;20.60;46.90
15609;DHT22;63162;45.642;13.758;2022-09-02T05:40:49;20.60;46.70
15609;DHT22;63162;45.642;13.758;2022-09-02T05:43:15;20.70;47.60
15609;DHT22;63162;45.642;13.758;2022-09-02T05:45:41;20.60;46.80
15609;DHT22;63162;45.642;13.758;2022-09-02T05:48:06;20.70;46.80
15609;DHT22;63162;45.642;13.758;2022-09-02T05:50:53;20.70;46.50
15609;DHT22;63162;45.642;13.758;2022-09-02T05:53:18;20.70;46.80
15609;DHT22;63162;45.642;13.758;2022-09-02T05:55:44;20.70;46.70
15609;DHT22;63162;45.642;13.758;2022-09-02T22:56:11;21.90;51.90
15609;DHT22;63162;45.642;13.758;2022-09-02T22:58:52;21.80;51.90
15609;DHT22;63162;45.642;13.758;2022-09-02T23:06:52;21.70;52.50
15609;DHT22;63162;45.642;13.758;2022-09-02T23:09:24;21.60;52.60
15609;DHT22;63162;45.642;13.758;2022-09-02T23:17:07;21.50;53.10
15609;DHT22;63162;45.642;13.758;2022-09-02T23:28:12;21.40;53.00
15609;DHT22;63162;45.642;13.758;2022-09-02T23:30:51;21.50;53.10
15609;DHT22;63162;45.642;13.758;2022-09-02T23:39:15;21.50;52.70
15609;DHT22;63162;45.642;13.758;2022-09-02T23:41:47;21.50;52.70
15609;DHT22;63162;45.642;13.758;2022-09-02T23:44:13;21.50;52.80
15609;DHT22;63162;45.642;13.758;2022-09-02T23:47:01;21.50;52.90
15609;DHT22;63162;45.642;13.758;2022-09-02T23:49:46;21.40;52.80
15609;DHT22;63162;45.642;13.758;2022-09-02T23:52:38;21.50;53.70
15609;DHT22;63162;45.642;13.758;2022-09-02T23:55:46;21.50;53.00
15609;DHT22;63162;45.642;13.758;2022-09-02T23:58:42;21.50;53.10
